Time;durP1;ratioP1;P1;durP2;ratioP2;P2;SDS_P1;SDS_P2;PMS_P1;PMS_P2;Temp;Humidity;BMP_temperature;BMP_pressure;BME280_temperature;BME280_humidity;BME280_pressure;Samples;Min_cycle;Max_cycle;Signal;HPM_P1;HPM_P2
2023/06/13 00:01:49;;;;;;;11.73;8.90;;;460.90;2380.80;;;;;;5071576;28;20051;-85
2023/06/13 00:04:23;;;;;;;12.40;8.68;;;461.10;2380.80;;;;;;5071765;28;20128;-87
2023/06/13 00:06:56;;;;;;;16.88;9.35;;;461.10;2380.80;;;;;;5071250;28;20053;-85
2023/06/13 00:09:25;;;;;;;11.68;8.82;;;461.10;2380.80;;;;;;5071763;28;20025;-85
2023/06/13 00:11:51;;;;;;;13.25;9.43;;;461.10;2380.80;;;;;;5071721;28;20125;-86
2023/06/13 00:14:19;;;;;;;12.73;9.48;;;461.10;2380.80;;;;;;5071602;28;20029;-86
2023/06/13 00:16:47;;;;;;;14.20;10.75;;;461.10;2380.80;;;;;;5071710;28;20024;-85
2023/06/13 00:19:17;;;;;;;13.88;10.75;;;461.10;2380.80;;;;;;5054978;28;20056;-87
2023/06/13 00:21:45;;;;;;;13.45;10.00;;;461.20;2380.80;;;;;;5055797;28;20042;-86
2023/06/13 00:24:11;;;;;;;13.80;11.82;;;461.10;2380.80;;;;;;5056026;28;20025;-85
2023/06/13 00:26:37;;;;;;;15.80;11.98;;;461.10;2380.80;;;;;;5056004;28;20029;-85
2023/06/13 00:29:03;;;;;;;16.10;12.60;;;461.10;2380.80;;;;;;5054752;28;20059;-86
2023/06/13 00:31:29;;;;;;;19.30;13.25;;;461.10;2380.80;;;;;;5054588;28;20104;-84
2023/06/13 00:33:59;;;;;;;16.45;13.68;;;461.10;2380.80;;;;;;5054769;28;20163;-86
2023/06/13 00:36:27;;;;;;;15.73;13.48;;;461.10;2380.80;;;;;;5055083;28;20048;-86
2023/06/13 00:38:55;;;;;;;17.60;13.85;;;461.10;2380.80;;;;;;5055871;28;20104;-86
2023/06/13 00:41:24;;;;;;;18.58;13.77;;;461.10;2380.80;;;;;;5054561;28;20024;-88
2023/06/13 00:43:50;;;;;;;18.40;14.50;;;461.10;2380.80;;;;;;5054550;28;20029;-87
2023/06/13 00:46:18;;;;;;;19.08;14.82;;;461.10;2380.80;;;;;;5054092;28;20036;-83
2023/06/13 00:48:44;;;;;;;23.75;16.02;;;461.10;2380.80;;;;;;5053328;28;20029;-83
2023/06/13 00:51:15;;;;;;;20.52;15.68;;;461.10;2380.80;;;;;;5054685;28;20040;-83
2023/06/13 00:53:45;;;;;;;20.13;16.05;;;461.20;2380.80;;;;;;5053680;28;20055;-83
2023/06/13 00:56:11;;;;;;;19.65;16.20;;;461.20;2380.80;;;;;;5053133;28;20033;-83
2023/06/13 00:58:37;;;;;;;23.40;17.10;;;461.20;2380.80;;;;;;5055102;28;20104;-82
2023/06/13 01:01:04;;;;;;;21.88;16.30;;;461.20;2380.80;;;;;;5040995;28;20041;-83
2023/06/13 01:03:34;;;;;;;23.75;17.50;;;461.20;2380.80;;;;;;5033320;28;20025;-84
2023/06/13 01:06:00;;;;;;;22.90;18.08;;;461.20;2380.80;;;;;;5034408;28;20045;-84
2023/06/13 01:08:27;;;;;;;24.08;18.10;;;461.20;2380.80;;;;;;5034627;28;20025;-82
2023/06/13 01:11:10;;;;;;;20.48;16.30;;;461.20;2380.80;;;;;;5034285;28;20025;-84
2023/06/13 01:13:50;;;;;;;22.95;17.77;;;461.10;2380.80;;;;;;5033542;28;20032;-83
2023/06/13 01:16:28;;;;;;;20.92;17.65;;;461.10;2380.80;;;;;;5048770;28;20112;-82
2023/06/13 01:18:58;;;;;;;24.33;19.02;;;461.10;2380.80;;;;;;5056776;28;20028;-83
2023/06/13 01:21:27;;;;;;;22.88;18.83;;;461.20;2380.80;;;;;;5034531;28;20116;-83
2023/06/13 01:24:07;;;;;;;24.58;18.80;;;461.10;2380.80;;;;;;5033179;28;20473;-86
2023/06/13 01:26:53;;;;;;;22.00;18.45;;;461.10;2380.80;;;;;;5033537;28;20061;-82
2023/06/13 01:29:20;;;;;;;22.73;18.50;;;461.10;2380.80;;;;;;5033459;28;20080;-82
2023/06/13 01:31:50;;;;;;;26.90;21.05;;;461.10;2380.80;;;;;;5033019;28;20461;-84
2023/06/13 01:34:16;;;;;;;25.38;21.08;;;461.10;2380.80;;;;;;5034199;28;20099;-83
2023/06/13 01:36:42;;;;;;;27.58;20.75;;;461.10;2380.80;;;;;;5033117;28;20055;-84
2023/06/13 01:39:09;;;;;;;21.92;18.98;;;461.10;2380.80;;;;;;5034080;28;20100;-84
2023/06/13 01:41:35;;;;;;;25.65;20.42;;;461.10;2380.80;;;;;;5032990;28;20093;-84
2023/06/13 01:44:04;;;;;;;28.83;19.92;;;461.10;2380.80;;;;;;5032842;28;20060;-85
2023/06/13 01:46:33;;;;;;;24.27;19.60;;;461.20;2380.80;;;;;;5032919;28;20390;-84
2023/06/13 01:49:08;;;;;;;24.95;19.90;;;461.10;2380.80;;;;;;5032986;28;20373;-83
2023/06/13 01:52:03;;;;;;;27.50;21.25;;;461.10;2380.80;;;;;;5032799;28;20443;-85
2023/06/13 01:54:35;;;;;;;26.67;20.73;;;461.00;2380.80;;;;;;5027794;28;20124;-84
2023/06/13 01:57:06;;;;;;;25.98;21.85;;;461.10;2380.80;;;;;;5034108;28;20018;-84
2023/06/13 01:59:33;;;;;;;25.13;20.27;;;461.10;2380.80;;;;;;5034251;28;20025;-83
2023/06/13 02:02:02;;;;;;;28.67;22.85;;;461.20;2380.80;;;;;;5052198;28;20041;-84
2023/06/13 02:04:28;;;;;;;25.23;21.42;;;461.20;2380.80;;;;;;5053881;28;20108;-84
2023/06/13 02:06:55;;;;;;;31.45;23.80;;;461.20;1996.80;;;;;;5053049;28;20099;-83
2023/06/13 02:09:20;;;;;;;24.95;21.20;;;461.10;2380.80;;;;;;5052667;28;20033;-84
2023/06/13 02:11:46;;;;;;;32.38;23.95;;;461.10;2380.80;;;;;;5053518;28;20071;-85
2023/06/13 02:14:12;;;;;;;27.73;24.73;;;461.10;2380.80;;;;;;5052456;28;20052;-84
2023/06/13 02:16:39;;;;;;;30.88;25.60;;;461.10;2380.80;;;;;;5052462;28;20021;-84
2023/06/13 02:19:07;;;;;;;29.83;23.95;;;461.10;2380.80;;;;;;5052493;28;20468;-84
2023/06/13 02:21:33;;;;;;;32.92;25.55;;;461.00;2380.80;;;;;;5053587;28;20029;-84
2023/06/13 02:23:59;;;;;;;32.25;25.75;;;461.10;2355.20;;;;;;5052418;28;20033;-82
2023/06/13 02:26:28;;;;;;;31.15;26.08;;;461.00;2380.80;;;;;;5052180;28;20162;-84
2023/06/13 02:28:57;;;;;;;33.50;25.73;;;461.10;2380.80;;;;;;5052327;28;20029;-84
2023/06/13 02:31:23;;;;;;;31.73;26.15;;;461.10;2380.80;;;;;;5052295;28;20037;-84
2023/06/13 02:33:49;;;;;;;33.25;26.15;;;461.10;2380.80;;;;;;5052231;28;20506;-82
2023/06/13 02:36:15;;;;;;;33.72;27.50;;;461.10;2380.80;;;;;;5052189;28;20060;-83
2023/06/13 02:38:43;;;;;;;30.05;25.67;;;461.10;2380.80;;;;;;5053612;28;20151;-85
2023/06/13 02:41:08;;;;;;;34.53;27.65;;;461.10;2380.80;;;;;;5051988;28;20544;-83
2023/06/13 02:43:34;;;;;;;33.58;28.95;;;461.10;2355.20;;;;;;5053357;28;20091;-85
2023/06/13 02:46:00;;;;;;;35.90;28.05;;;461.10;2252.80;;;;;;5052020;28;20035;-83
2023/06/13 02:48:26;;;;;;;34.42;26.80;;;461.10;2380.80;;;;;;5051972;28;20079;-83
2023/06/13 02:50:53;;;;;;;35.25;26.50;;;461.10;2380.80;;;;;;5052206;28;20451;-84
2023/06/13 02:53:20;;;;;;;33.88;27.08;;;461.10;2380.80;;;;;;5051659;28;20432;-83
2023/06/13 02:55:46;;;;;;;32.53;27.25;;;461.10;2380.80;;;;;;5051284;28;20025;-83
2023/06/13 02:58:13;;;;;;;38.53;28.10;;;461.10;2380.80;;;;;;5053020;28;20417;-85
2023/06/13 03:00:38;;;;;;;36.03;27.88;;;461.20;2380.80;;;;;;5044617;28;20033;-83
2023/06/13 03:03:04;;;;;;;36.10;27.13;;;461.20;2380.80;;;;;;5032085;28;20492;-83
2023/06/13 03:05:32;;;;;;;38.35;27.67;;;461.20;2380.80;;;;;;5031771;28;20059;-84
2023/06/13 03:07:59;;;;;;;32.67;26.45;;;461.20;2380.80;;;;;;5035013;28;20112;-83
2023/06/13 03:10:25;;;;;;;33.67;27.58;;;461.20;2380.80;;;;;;5035791;28;20533;-85
2023/06/13 03:12:50;;;;;;;33.03;26.75;;;461.20;2380.80;;;;;;5035788;28;20049;-83
2023/06/13 03:15:17;;;;;;;34.83;25.63;;;461.30;2380.80;;;;;;5035440;28;20064;-84
2023/06/13 03:17:44;;;;;;;38.72;29.23;;;461.20;2380.80;;;;;;5035615;28;20036;-84
2023/06/13 03:20:11;;;;;;;35.65;28.20;;;461.20;2380.80;;;;;;5035459;28;20033;-85
2023/06/13 03:22:37;;;;;;;37.00;28.85;;;461.30;2380.80;;;;;;5051917;28;20038;-84
2023/06/13 03:25:04;;;;;;;35.10;27.88;;;461.20;2380.80;;;;;;5052200;28;20041;-84
2023/06/13 03:27:31;;;;;;;36.65;28.77;;;461.20;2380.80;;;;;;5036849;28;20025;-85
2023/06/13 03:29:57;;;;;;;33.83;26.98;;;461.20;2380.80;;;;;;5036475;28;20022;-83
2023/06/13 03:32:23;;;;;;;30.20;26.65;;;461.20;2380.80;;;;;;5035428;28;20033;-84
2023/06/13 03:34:50;;;;;;;34.05;26.02;;;461.20;2380.80;;;;;;5035339;28;20032;-83
2023/06/13 03:37:16;;;;;;;33.40;26.67;;;461.20;2073.60;;;;;;5034715;28;20029;-86
2023/06/13 03:39:41;;;;;;;34.10;27.33;;;461.20;2380.80;;;;;;5035397;28;20044;-86
2023/06/13 03:42:07;;;;;;;36.08;28.85;;;461.20;2380.80;;;;;;5035185;28;20520;-85
2023/06/13 03:44:33;;;;;;;34.45;28.58;;;461.20;2380.80;;;;;;5034929;28;20397;-84
2023/06/13 03:46:59;;;;;;;34.15;28.75;;;461.20;2380.80;;;;;;5035469;28;20025;-84
2023/06/13 03:49:25;;;;;;;29.77;26.55;;;461.20;2380.80;;;;;;5035168;28;20021;-83
2023/06/13 03:51:51;;;;;;;33.97;26.88;;;461.20;2380.80;;;;;;5036317;28;20033;-86
2023/06/13 03:54:20;;;;;;;33.85;26.85;;;461.10;2380.80;;;;;;5034981;28;20025;-85
2023/06/13 03:56:45;;;;;;;32.88;27.83;;;461.20;2380.80;;;;;;5035197;28;20461;-84
2023/06/13 03:59:11;;;;;;;31.00;26.13;;;461.20;2380.80;;;;;;5034827;28;20025;-84
2023/06/13 04:01:37;;;;;;;33.53;28.63;;;461.20;2380.80;;;;;;5034705;28;20140;-83
2023/06/13 04:04:03;;;;;;;35.80;26.90;;;461.20;2380.80;;;;;;5034809;28;20033;-85
2023/06/13 04:06:29;;;;;;;30.60;25.25;;;461.30;2380.80;;;;;;5035804;28;20049;-85
2023/06/13 04:08:57;;;;;;;32.25;24.95;;;461.40;2380.80;;;;;;5034673;28;20021;-84
2023/06/13 04:11:23;;;;;;;32.88;26.52;;;461.20;2380.80;;;;;;5034353;28;20060;-83
2023/06/13 04:13:49;;;;;;;32.60;26.77;;;461.30;2380.80;;;;;;5034712;28;20485;-83
2023/06/13 04:16:14;;;;;;;29.48;26.00;;;461.30;2380.80;;;;;;5036048;28;20033;-83
2023/06/13 04:18:41;;;;;;;30.92;26.73;;;461.30;2380.80;;;;;;5034175;28;20528;-82
2023/06/13 04:21:08;;;;;;;33.30;26.33;;;461.40;2380.80;;;;;;5034269;28;20033;-82
2023/06/13 04:23:34;;;;;;;34.65;25.38;;;461.40;2380.80;;;;;;5034482;28;20044;-83
2023/06/13 04:26:03;;;;;;;32.60;25.30;;;461.20;2380.80;;;;;;5033998;28;20025;-83
2023/06/13 04:28:33;;;;;;;29.77;25.13;;;461.30;2380.80;;;;;;5034353;28;20029;-82
2023/06/13 04:31:03;;;;;;;29.35;25.38;;;461.20;2380.80;;;;;;5035536;28;20036;-83
2023/06/13 04:33:29;;;;;;;32.35;24.55;;;461.30;2380.80;;;;;;5034102;28;20025;-83
2023/06/13 04:36:03;;;;;;;32.35;25.63;;;461.20;2380.80;;;;;;5035312;28;20393;-83
2023/06/13 04:38:29;;;;;;;30.15;24.60;;;461.20;2380.80;;;;;;5034401;28;20053;-83
2023/06/13 04:40:56;;;;;;;34.20;26.65;;;461.20;2380.80;;;;;;5033965;28;20029;-84
2023/06/13 04:43:22;;;;;;;34.25;27.10;;;461.20;2380.80;;;;;;5034129;28;20393;-83
2023/06/13 04:45:48;;;;;;;29.67;24.80;;;461.20;2380.80;;;;;;5034541;28;20029;-85
2023/06/13 04:48:15;;;;;;;29.70;25.48;;;461.20;2380.80;;;;;;5035118;28;20053;-83
2023/06/13 04:50:41;;;;;;;32.47;25.45;;;461.20;2380.80;;;;;;5034047;28;20132;-83
2023/06/13 04:53:11;;;;;;;31.00;25.50;;;461.20;2380.80;;;;;;5035053;28;20092;-82
2023/06/13 04:55:40;;;;;;;34.35;26.20;;;461.20;2380.80;;;;;;5035059;28;20025;-83
2023/06/13 04:58:06;;;;;;;31.20;24.85;;;461.20;2022.40;;;;;;5033837;28;20044;-83
2023/06/13 05:00:32;;;;;;;31.23;24.90;;;461.20;2380.80;;;;;;5034742;28;20473;-84
2023/06/13 05:03:00;;;;;;;28.15;24.70;;;461.20;2380.80;;;;;;5033759;28;20458;-83
2023/06/13 05:05:26;;;;;;;29.70;24.35;;;461.20;2380.80;;;;;;5033518;28;20065;-83
2023/06/13 05:07:57;;;;;;;29.40;23.30;;;461.20;2380.80;;;;;;5033708;28;20091;-83
2023/06/13 05:10:24;;;;;;;30.13;23.17;;;461.20;2380.80;;;;;;5033733;28;20056;-84
2023/06/13 05:12:51;;;;;;;30.90;25.15;;;461.20;2380.80;;;;;;5033681;28;20033;-85
2023/06/13 05:15:18;;;;;;;30.02;23.27;;;461.20;2380.80;;;;;;5034643;28;20029;-82
2023/06/13 05:17:48;;;;;;;30.08;23.90;;;461.20;2380.80;;;;;;5049875;28;20029;-82
2023/06/13 05:20:14;;;;;;;33.17;23.67;;;461.20;2380.80;;;;;;5055415;28;20548;-84
2023/06/13 05:22:41;;;;;;;30.10;22.75;;;461.30;2380.80;;;;;;5033096;28;20036;-84
2023/06/13 05:25:11;;;;;;;26.58;22.27;;;461.40;2380.80;;;;;;5033617;28;20032;-82
2023/06/13 05:27:38;;;;;;;25.85;21.30;;;461.40;2380.80;;;;;;5033297;28;20025;-82
2023/06/13 05:30:08;;;;;;;24.58;20.25;;;461.40;2380.80;;;;;;5033429;28;20037;-83
2023/06/13 05:32:34;;;;;;;26.25;20.05;;;461.40;2380.80;;;;;;5033237;28;20033;-82
2023/06/13 05:35:00;;;;;;;29.77;22.00;;;461.40;2380.80;;;;;;5034130;28;20502;-83
2023/06/13 05:37:28;;;;;;;25.15;19.42;;;461.40;2380.80;;;;;;5033052;28;20030;-83
2023/06/13 05:39:54;;;;;;;24.75;20.48;;;461.40;2380.80;;;;;;5033039;28;20026;-82
2023/06/13 05:42:20;;;;;;;20.75;17.90;;;461.40;2380.80;;;;;;5032664;28;20029;-82
2023/06/13 05:44:46;;;;;;;23.75;18.70;;;461.50;2380.80;;;;;;5032827;28;20029;-83
2023/06/13 05:47:12;;;;;;;20.55;17.77;;;461.50;2380.80;;;;;;5032916;28;20030;-84
2023/06/13 05:49:38;;;;;;;20.42;18.15;;;461.50;2380.80;;;;;;5033354;28;20026;-84
2023/06/13 05:52:04;;;;;;;20.05;17.85;;;461.50;2380.80;;;;;;5032894;28;20037;-83
2023/06/13 05:54:31;;;;;;;22.63;19.35;;;461.60;2380.80;;;;;;5032709;28;20362;-85
2023/06/13 05:56:56;;;;;;;24.08;20.05;;;461.60;2380.80;;;;;;5032609;28;20032;-84
2023/06/13 05:59:22;;;;;;;22.35;18.63;;;461.60;2380.80;;;;;;5032864;28;20025;-84
2023/06/13 06:01:49;;;;;;;20.85;17.63;;;461.70;2380.80;;;;;;5033667;28;20040;-86
2023/06/13 06:04:14;;;;;;;18.65;16.20;;;461.70;2380.80;;;;;;5032666;28;20029;-84
2023/06/13 06:06:40;;;;;;;19.13;16.55;;;461.70;2380.80;;;;;;5032501;28;20104;-85
2023/06/13 06:09:06;;;;;;;19.40;17.27;;;461.70;2380.80;;;;;;5032821;28;20036;-83
2023/06/13 06:11:33;;;;;;;18.58;16.55;;;461.70;2380.80;;;;;;5032270;28;20492;-84
2023/06/13 06:13:59;;;;;;;19.63;16.17;;;461.70;2380.80;;;;;;5032609;28;20026;-84
2023/06/13 06:16:25;;;;;;;21.67;17.20;;;486.40;2252.80;;;;;;5033778;28;20022;-85
2023/06/13 06:18:53;;;;;;;20.75;17.80;;;486.40;2380.80;;;;;;5032758;28;20022;-85
2023/06/13 06:21:19;;;;;;;25.73;18.67;;;486.50;2380.80;;;;;;5032324;28;20033;-84
2023/06/13 06:23:45;;;;;;;20.88;18.42;;;486.50;2380.80;;;;;;5032531;28;20124;-85
2023/06/13 06:26:11;;;;;;;23.33;19.42;;;486.50;2380.80;;;;;;5032787;28;20540;-86
2023/06/13 06:28:40;;;;;;;23.83;18.63;;;486.50;2380.80;;;;;;5043670;28;20079;-85
2023/06/13 06:31:06;;;;;;;23.30;18.98;;;486.70;2380.80;;;;;;5052151;28;20457;-85
2023/06/13 06:33:32;;;;;;;22.15;18.40;;;486.70;2380.80;;;;;;5052151;28;20029;-86
2023/06/13 06:35:57;;;;;;;24.08;18.65;;;486.70;2380.80;;;;;;5052860;28;20461;-85
2023/06/13 06:38:23;;;;;;;24.40;20.08;;;486.70;2380.80;;;;;;5052484;28;20071;-85
2023/06/13 06:40:49;;;;;;;20.73;17.95;;;486.70;2380.80;;;;;;5052781;28;20036;-85
2023/06/13 06:43:15;;;;;;;22.00;19.00;;;486.70;2380.80;;;;;;5057533;28;20389;-86
2023/06/13 06:45:41;;;;;;;22.52;18.67;;;486.70;2380.80;;;;;;5056471;28;20428;-85
2023/06/13 06:48:07;;;;;;;21.48;18.58;;;486.70;2380.80;;;;;;5057550;28;20032;-85
2023/06/13 06:50:32;;;;;;;24.65;19.38;;;486.70;2380.80;;;;;;5056585;28;20127;-86
2023/06/13 06:52:58;;;;;;;23.38;20.42;;;486.70;2380.80;;;;;;5056284;28;20032;-86
2023/06/13 06:55:24;;;;;;;23.67;19.65;;;486.70;2380.80;;;;;;5056378;28;20029;-86
2023/06/13 06:57:53;;;;;;;23.42;19.80;;;486.70;2380.80;;;;;;5055752;28;20029;-86
2023/06/13 07:00:20;;;;;;;22.95;20.38;;;486.70;2380.80;;;;;;5055964;28;20118;-86
2023/06/13 07:02:45;;;;;;;23.38;20.33;;;486.80;2380.80;;;;;;5055908;28;20036;-86
2023/06/13 07:05:11;;;;;;;24.42;21.45;;;486.80;2380.80;;;;;;5056074;28;20049;-85
2023/06/13 07:07:37;;;;;;;25.65;20.10;;;486.80;2380.80;;;;;;5056158;28;20021;-87
2023/06/13 07:10:05;;;;;;;22.88;20.40;;;486.80;2380.80;;;;;;5056240;28;20064;-85
2023/06/13 07:12:34;;;;;;;22.60;20.20;;;486.80;2380.80;;;;;;5055853;28;20123;-85
2023/06/13 07:15:00;;;;;;;23.95;19.45;;;486.90;2380.80;;;;;;5055757;28;20025;-86
2023/06/13 07:17:26;;;;;;;23.90;19.83;;;487.00;2380.80;;;;;;5055818;28;20048;-85
2023/06/13 07:19:51;;;;;;;20.98;18.17;;;487.00;2380.80;;;;;;5055562;28;20064;-80
2023/06/13 07:22:17;;;;;;;23.30;18.55;;;487.00;2380.80;;;;;;5055360;28;20032;-83
2023/06/13 07:24:43;;;;;;;21.63;18.08;;;487.00;2380.80;;;;;;5056236;28;20036;-80
2023/06/13 07:27:10;;;;;;;19.58;17.48;;;487.00;2380.80;;;;;;5054905;28;20033;-83
2023/06/13 07:29:36;;;;;;;20.23;17.90;;;487.00;2380.80;;;;;;5055069;28;20028;-82
2023/06/13 07:32:02;;;;;;;19.92;16.90;;;487.00;2380.80;;;;;;5054957;28;20037;-82
2023/06/13 07:34:29;;;;;;;18.25;16.25;;;487.00;2380.80;;;;;;5055997;28;20072;-83
2023/06/13 07:36:55;;;;;;;18.67;16.67;;;487.10;2380.80;;;;;;5054703;28;20025;-82
2023/06/13 07:39:20;;;;;;;20.85;17.70;;;487.10;2380.80;;;;;;5054780;28;20043;-80
2023/06/13 07:41:48;;;;;;;20.55;18.02;;;487.10;2380.80;;;;;;5054500;28;20119;-82
2023/06/13 07:44:15;;;;;;;23.27;19.63;;;487.20;2380.80;;;;;;5054428;28;20029;-82
2023/06/13 07:46:40;;;;;;;23.60;18.52;;;487.20;2380.80;;;;;;5056026;28;20469;-81
2023/06/13 07:49:06;;;;;;;21.70;18.42;;;487.20;2380.80;;;;;;5055917;28;20064;-81
2023/06/13 07:51:32;;;;;;;20.27;17.48;;;487.20;2380.80;;;;;;5054633;28;20087;-81
2023/06/13 07:53:58;;;;;;;25.13;20.13;;;487.10;2380.80;;;;;;5053773;28;20021;-81
2023/06/13 07:56:24;;;;;;;24.35;20.27;;;487.10;2380.80;;;;;;5054411;28;20036;-82
2023/06/13 07:58:50;;;;;;;25.23;19.70;;;487.10;2380.80;;;;;;5054337;28;20025;-82
2023/06/13 08:01:16;;;;;;;20.88;18.60;;;487.10;2380.80;;;;;;5054501;28;20044;-83
2023/06/13 08:03:44;;;;;;;20.30;17.63;;;487.00;2380.80;;;;;;5054366;28;20029;-83
2023/06/13 08:06:09;;;;;;;17.27;14.32;;;487.10;2380.80;;;;;;5055566;28;20106;-88
2023/06/13 08:08:35;;;;;;;18.85;16.17;;;487.10;2380.80;;;;;;5054981;28;20025;-84
2023/06/13 08:11:01;;;;;;;17.63;15.45;;;487.20;2380.80;;;;;;5054489;28;20512;-85
2023/06/13 08:13:27;;;;;;;16.75;15.00;;;487.30;2380.80;;;;;;5054567;28;20033;-84
2023/06/13 08:15:53;;;;;;;17.17;13.88;;;487.30;2380.80;;;;;;5054376;28;20025;-85
2023/06/13 08:18:18;;;;;;;17.92;15.70;;;487.20;2380.80;;;;;;5053809;28;20406;-85
2023/06/13 08:20:45;;;;;;;17.23;14.40;;;487.20;2380.80;;;;;;5054185;28;20056;-83
2023/06/13 08:23:12;;;;;;;15.48;13.63;;;487.20;2380.80;;;;;;5053885;28;20029;-83
2023/06/13 08:25:37;;;;;;;15.32;13.43;;;487.20;2380.80;;;;;;5053289;28;20060;-83
2023/06/13 08:28:06;;;;;;;14.75;12.65;;;487.20;2380.80;;;;;;5053297;28;20065;-84
2023/06/13 08:30:32;;;;;;;15.65;12.77;;;487.20;2380.80;;;;;;5052942;28;20082;-83
2023/06/13 08:33:01;;;;;;;15.52;12.00;;;487.20;2380.80;;;;;;5052639;28;20372;-84
2023/06/13 08:35:27;;;;;;;13.38;10.35;;;487.10;2380.80;;;;;;5053636;28;20048;-82
2023/06/13 08:37:53;;;;;;;14.43;11.50;;;487.10;2380.80;;;;;;5053511;28;20074;-83
2023/06/13 08:40:19;;;;;;;15.55;11.88;;;487.10;2380.80;;;;;;5055290;28;20108;-84
2023/06/13 08:42:46;;;;;;;12.55;11.20;;;487.10;2380.80;;;;;;5053984;28;20029;-85
2023/06/13 08:45:12;;;;;;;14.18;12.52;;;487.10;2380.80;;;;;;5053649;28;20107;-83
2023/06/13 08:47:40;;;;;;;13.93;12.02;;;487.10;2380.80;;;;;;5054743;28;20381;-83
2023/06/13 08:50:07;;;;;;;16.48;13.65;;;487.10;2380.80;;;;;;5053524;28;20492;-84
2023/06/13 08:52:41;;;;;;;18.88;14.68;;;487.10;2380.80;;;;;;5053543;28;20035;-82
2023/06/13 08:55:12;;;;;;;17.05;14.45;;;487.20;2380.80;;;;;;5053753;28;20021;-82
2023/06/13 08:57:39;;;;;;;16.35;13.63;;;487.20;2380.80;;;;;;5053521;28;20025;-83
2023/06/13 09:00:09;;;;;;;18.02;14.48;;;487.30;2380.80;;;;;;5053077;28;20457;-83
2023/06/13 09:02:36;;;;;;;17.85;15.93;;;487.30;2380.80;;;;;;5052857;28;20033;-82
2023/06/13 09:05:03;;;;;;;25.50;17.02;;;487.30;2380.80;;;;;;5052166;28;20028;-84
2023/06/13 09:07:30;;;;;;;20.65;16.90;;;512.00;2380.80;;;;;;5053364;28;20042;-82
2023/06/13 09:09:57;;;;;;;20.33;15.52;;;512.00;2380.80;;;;;;5052442;28;20021;-83
2023/06/13 09:12:22;;;;;;;22.75;17.48;;;512.00;2380.80;;;;;;5074813;28;20005;-83
2023/06/13 09:14:48;;;;;;;18.70;15.65;;;512.00;2380.80;;;;;;5062227;28;20112;-83
2023/06/13 09:17:16;;;;;;;17.77;15.82;;;487.30;2380.80;;;;;;5053331;28;20480;-82
2023/06/13 09:19:43;;;;;;;19.33;16.55;;;487.20;2380.80;;;;;;5053060;28;20536;-84
2023/06/13 09:22:08;;;;;;;21.60;16.30;;;487.20;2380.80;;;;;;5052887;28;20029;-84
2023/06/13 09:24:35;;;;;;;17.60;15.70;;;487.20;2380.80;;;;;;5053018;28;20101;-82
2023/06/13 09:27:01;;;;;;;17.02;15.23;;;487.20;2380.80;;;;;;5052717;28;20028;-83
2023/06/13 09:29:35;;;;;;;17.83;15.07;;;487.20;2380.80;;;;;;5054294;28;20024;-82
2023/06/13 09:32:01;;;;;;;16.77;14.98;;;487.10;2380.80;;;;;;5053196;28;20043;-84
2023/06/13 09:34:30;;;;;;;18.00;14.85;;;487.10;2380.80;;;;;;5052584;28;20025;-84
2023/06/13 09:36:58;;;;;;;15.52;13.43;;;487.10;2380.80;;;;;;5052900;28;20079;-83
2023/06/13 09:39:27;;;;;;;17.98;13.35;;;487.10;2380.80;;;;;;5053050;28;20115;-84
2023/06/13 09:41:55;;;;;;;17.40;12.23;;;487.20;2380.80;;;;;;5052540;28;20028;-83
2023/06/13 09:44:23;;;;;;;15.68;13.68;;;487.10;2380.80;;;;;;5053193;28;20033;-85
2023/06/13 09:46:53;;;;;;;15.55;12.60;;;487.10;2380.80;;;;;;5052854;28;20025;-84
2023/06/13 09:49:21;;;;;;;13.90;12.48;;;487.20;2380.80;;;;;;5051915;28;20064;-83
2023/06/13 09:51:50;;;;;;;18.05;13.15;;;487.00;2380.80;;;;;;5052988;28;20029;-84
2023/06/13 09:54:16;;;;;;;17.33;14.23;;;487.10;2380.80;;;;;;5053685;28;20559;-81
2023/06/13 09:56:43;;;;;;;18.33;14.32;;;487.10;2380.80;;;;;;5054223;28;20051;-83
2023/06/13 09:59:18;;;;;;;17.75;14.07;;;487.00;2380.80;;;;;;5051476;28;20491;-83
2023/06/13 10:01:48;;;;;;;16.30;13.23;;;487.00;2380.80;;;;;;5051597;28;20480;-82
2023/06/13 10:04:14;;;;;;;17.00;14.05;;;487.00;2380.80;;;;;;5051799;28;20040;-82
2023/06/13 10:06:41;;;;;;;17.67;14.60;;;487.00;2380.80;;;;;;5051965;28;20587;-82
2023/06/13 10:09:07;;;;;;;16.13;14.32;;;487.10;2380.80;;;;;;5052694;28;20111;-83
2023/06/13 10:11:37;;;;;;;17.05;15.13;;;487.10;2380.80;;;;;;5052119;28;20513;-82
2023/06/13 10:14:13;;;;;;;18.98;16.00;;;487.10;2380.80;;;;;;5052385;28;20032;-83
2023/06/13 10:16:49;;;;;;;18.02;15.65;;;487.20;2380.80;;;;;;5056105;28;20104;-83
2023/06/13 10:19:19;;;;;;;19.40;16.95;;;487.30;2380.80;;;;;;5056517;28;20025;-83
2023/06/13 10:21:46;;;;;;;15.32;13.73;;;512.00;2380.80;;;;;;5056372;28;20029;-83
2023/06/13 10:24:13;;;;;;;16.27;13.70;;;512.10;2380.80;;;;;;5056024;28;20029;-83
2023/06/13 10:26:44;;;;;;;15.25;12.43;;;512.10;2380.80;;;;;;5056473;28;20029;-83
2023/06/13 10:29:32;;;;;;;14.00;12.23;;;512.20;2380.80;;;;;;5055022;28;20025;-82
2023/06/13 10:32:19;;;;;;;12.20;10.77;;;512.30;2380.80;;;;;;5040462;28;20029;-84
2023/06/13 10:34:55;;;;;;;13.25;11.10;;;512.30;2380.80;;;;;;5056292;28;20049;-83
2023/06/13 10:37:38;;;;;;;9.85;8.63;;;512.40;2380.80;;;;;;5056004;28;20029;-83
2023/06/13 10:40:29;;;;;;;11.07;9.57;;;512.20;2380.80;;;;;;5056040;28;20464;-82
2023/06/13 10:43:31;;;;;;;11.43;8.95;;;512.20;2380.80;;;;;;5057151;28;20025;-84
2023/06/13 10:46:01;;;;;;;9.52;8.15;;;512.20;2380.80;;;;;;5043324;28;20040;-82
2023/06/13 10:48:46;;;;;;;10.90;9.25;;;512.20;2380.80;;;;;;5055827;28;20037;-82
2023/06/13 10:51:12;;;;;;;10.73;9.48;;;512.20;2380.80;;;;;;5055917;28;20031;-84
2023/06/13 10:53:38;;;;;;;11.95;10.25;;;512.20;2380.80;;;;;;5057068;28;20025;-85
2023/06/13 10:56:08;;;;;;;9.65;8.52;;;512.20;2380.80;;;;;;5056114;28;20029;-83
2023/06/13 10:58:35;;;;;;;10.77;7.82;;;512.20;2380.80;;;;;;5055558;28;20120;-84
2023/06/13 11:01:34;;;;;;;8.65;7.55;;;512.20;2380.80;;;;;;5055302;28;20040;-84
2023/06/13 11:04:13;;;;;;;9.10;7.60;;;512.20;2380.80;;;;;;4998201;28;20446;-83
2023/06/13 11:06:44;;;;;;;8.68;7.32;;;512.20;2380.80;;;;;;4998056;28;20042;-82
2023/06/13 11:09:24;;;;;;;9.27;6.38;;;512.20;2380.80;;;;;;5015118;28;20034;-84
2023/06/13 11:11:55;;;;;;;6.18;5.13;;;512.30;2380.80;;;;;;5014816;28;20040;-83
2023/06/13 11:14:27;;;;;;;6.63;5.33;;;512.20;2380.80;;;;;;4998317;28;20042;-83
2023/06/13 11:16:54;;;;;;;8.13;5.90;;;512.20;2380.80;;;;;;4998510;28;20326;-84
2023/06/13 11:19:22;;;;;;;7.88;5.45;;;512.00;2380.80;;;;;;4997842;28;20060;-85
2023/06/13 11:22:01;;;;;;;10.95;6.82;;;512.20;2380.80;;;;;;5014575;28;20164;-82
2023/06/13 11:24:29;;;;;;;7.88;6.70;;;512.20;2380.80;;;;;;4997827;28;20030;-79
2023/06/13 11:27:03;;;;;;;8.55;7.65;;;512.20;2380.80;;;;;;4996968;28;20092;-81
2023/06/13 11:29:30;;;;;;;12.25;8.65;;;512.20;2380.80;;;;;;4997846;28;20036;-79
2023/06/13 11:31:56;;;;;;;10.02;8.35;;;512.40;2380.80;;;;;;4999971;28;20056;-83
2023/06/13 11:34:28;;;;;;;11.63;9.52;;;512.40;2380.80;;;;;;5008411;28;20389;-83
2023/06/13 11:37:00;;;;;;;11.25;9.63;;;512.40;2380.80;;;;;;5007426;28;20022;-82
2023/06/13 11:39:53;;;;;;;13.02;10.65;;;512.30;2380.80;;;;;;5024802;28;20037;-83
2023/06/13 11:42:18;;;;;;;12.35;11.07;;;512.20;2380.80;;;;;;5056983;28;20123;-82
2023/06/13 11:44:44;;;;;;;13.77;11.95;;;512.10;2380.80;;;;;;5054830;28;20060;-81
2023/06/13 11:47:11;;;;;;;13.40;12.05;;;512.10;2380.80;;;;;;5054419;28;20631;-82
2023/06/13 11:49:37;;;;;;;14.68;12.15;;;512.10;2380.80;;;;;;5055791;28;20021;-82
2023/06/13 11:52:14;;;;;;;15.07;12.77;;;512.10;2380.80;;;;;;5054728;28;20029;-82
2023/06/13 11:54:46;;;;;;;14.90;13.30;;;512.10;2380.80;;;;;;5054746;28;20365;-82
2023/06/13 11:57:14;;;;;;;17.90;14.27;;;512.10;2380.80;;;;;;5056101;28;20032;-82
2023/06/13 11:59:40;;;;;;;16.80;15.02;;;512.10;2380.80;;;;;;5054763;28;20029;-83
2023/06/13 12:02:07;;;;;;;21.70;15.45;;;512.20;2380.80;;;;;;5054268;28;20068;-81
2023/06/13 12:04:34;;;;;;;16.00;13.80;;;512.40;2380.80;;;;;;5054586;28;20037;-82
2023/06/13 12:07:07;;;;;;;16.67;14.82;;;512.50;2380.80;;;;;;5053844;28;20083;-82